createdAt,value
2023-05-19T00:00:37.049Z,26.4
2023-05-19T00:06:29.466Z,26.4
2023-05-19T00:12:05.258Z,26.4
2023-05-19T00:17:57.242Z,26.4
2023-05-19T00:23:49.944Z,26.4
2023-05-19T00:29:41.123Z,26.4
2023-05-19T00:35:33.647Z,26.4
2023-05-19T00:41:25.544Z,26.4
2023-05-19T00:47:01.573Z,26.4
2023-05-19T00:52:38.396Z,26.4
2023-05-19T00:58:15.551Z,26.4
2023-05-19T01:03:52.389Z,26.4
2023-05-19T01:09:44.814Z,26.4
2023-05-19T01:15:20.974Z,26.8
2023-05-19T01:21:13.076Z,27.3
2023-05-19T01:32:41.411Z,28.6
2023-05-19T01:38:01.675Z,29.2
2023-05-19T01:49:16.843Z,30.6
2023-05-19T01:54:52.163Z,31.4
2023-05-19T02:00:44.043Z,32.1
2023-05-19T02:06:20.643Z,32.7
2023-05-19T02:11:56.271Z,33.4
2023-05-19T02:17:48.416Z,34.1
2023-05-19T02:23:40.275Z,34.8
2023-05-19T02:29:16.156Z,35.6
2023-05-19T02:34:53.238Z,36.2
2023-05-19T02:40:29.749Z,36.5
2023-05-19T02:46:05.080Z,36.7
2023-05-19T02:51:42.049Z,36.8
2023-05-19T02:57:03.590Z,36.8
2023-05-19T03:02:55.365Z,36.9
2023-05-19T03:08:32.598Z,36.8
2023-05-19T03:14:24.426Z,36.8
2023-05-19T03:20:00.618Z,36.9
2023-05-19T03:25:52.515Z,36.9
2023-05-19T03:31:45.343Z,36.9
2023-05-19T03:37:36.729Z,36.9
2023-05-19T03:43:28.808Z,36.9
2023-05-19T03:49:21.084Z,36.9
2023-05-19T03:55:11.777Z,36.8
2023-05-19T04:00:48.618Z,36.8
2023-05-19T04:06:40.983Z,36.8
2023-05-19T04:12:31.914Z,36.8
2023-05-19T04:18:23.933Z,36.8
2023-05-19T04:24:16.072Z,36.8
2023-05-19T04:30:06.576Z,36.8
2023-05-19T04:35:59.015Z,36.8
2023-05-19T04:41:38.694Z,36.8
2023-05-19T04:47:30.668Z,36.7
2023-05-19T04:53:24.468Z,36.7
2023-05-19T04:59:15.483Z,36.7
2023-05-19T05:04:52.319Z,36.4
2023-05-19T05:10:43.953Z,36.1
2023-05-19T05:16:35.761Z,36.2
2023-05-19T05:22:27.638Z,36.3
2023-05-19T05:28:04.069Z,36.4
2023-05-19T05:33:26.122Z,36.4
2023-05-19T05:39:17.348Z,36.4
2023-05-19T05:44:55.655Z,36.4
2023-05-19T05:50:48.083Z,36.4
2023-05-19T05:56:35.683Z,36.4
2023-05-19T06:02:12.209Z,36.4
2023-05-19T06:07:49.716Z,36.4
2023-05-19T06:13:41.812Z,36.4
2023-05-19T06:19:19.051Z,36.3
2023-05-19T06:24:56.223Z,36.3
2023-05-19T06:30:33.141Z,28.4
2023-05-19T06:36:29.004Z,44.1
2023-05-19T06:42:06.292Z,42
2023-05-19T06:47:44.593Z,40.9
2023-05-19T06:53:21.488Z,40.1
2023-05-19T06:59:06.488Z,47.1
2023-05-19T07:04:59.175Z,50
2023-05-19T07:10:39.995Z,51.2
2023-05-19T07:21:21.695Z,52.6
2023-05-19T07:26:42.377Z,53.1
2023-05-19T07:32:22.108Z,53.4
2023-05-19T07:37:58.720Z,53.6
2023-05-19T07:43:20.502Z,54.2
2023-05-19T07:48:42.653Z,54.9
2023-05-19T07:54:05.476Z,55.4
2023-05-19T07:59:26.519Z,55.9
2023-05-19T08:05:04.700Z,56.3
2023-05-19T08:10:39.053Z,56.8
2023-05-19T08:16:16.160Z,57.2
2023-05-19T08:21:53.457Z,57.6
2023-05-19T08:27:28.108Z,58.1
2023-05-19T08:33:04.215Z,58.4
2023-05-19T08:38:25.698Z,58.8
2023-05-19T08:44:00.915Z,59.2
2023-05-19T08:49:24.209Z,59.6
2023-05-19T08:55:16.144Z,59.9
2023-05-19T09:00:54.787Z,60.3
2023-05-19T09:06:49.800Z,60.6
2023-05-19T09:12:26.614Z,60.9
2023-05-19T09:18:05.986Z,61.3
2023-05-19T09:23:42.562Z,61.6
2023-05-19T09:29:19.598Z,61.9
2023-05-19T09:34:55.835Z,60.8
2023-05-19T09:40:31.992Z,62.3
2023-05-19T09:46:24.657Z,62.9
2023-05-19T09:52:00.824Z,61.4
2023-05-19T09:57:24.971Z,62.2
2023-05-19T10:03:18.380Z,58.4
2023-05-19T10:08:55.998Z,58
2023-05-19T10:14:31.740Z,59.9
2023-05-19T10:20:10.254Z,59.9
2023-05-19T10:26:01.811Z,61
2023-05-19T10:31:55.237Z,62.4
2023-05-19T10:37:32.820Z,59.6
2023-05-19T10:43:10.069Z,56.8
2023-05-19T10:49:01.659Z,60.1
2023-05-19T10:54:54.304Z,57.1
2023-05-19T11:00:32.829Z,59.6
2023-05-19T11:06:31.074Z,60.1
2023-05-19T11:12:36.453Z,59
2023-05-19T11:18:28.971Z,59.2
2023-05-19T11:24:24.244Z,59.9
2023-05-19T11:30:17.283Z,62.1
2023-05-19T11:36:10.210Z,62.6
2023-05-19T11:42:02.412Z,60.1
2023-05-19T11:48:13.712Z,57.5
2023-05-19T11:54:08.054Z,55.8
2023-05-19T12:00:14.528Z,58
2023-05-19T12:06:13.888Z,56.9
2023-05-19T12:12:07.069Z,54.7
2023-05-19T12:18:00.352Z,53.6
2023-05-19T12:23:45.980Z,51.7
2023-05-19T12:29:37.040Z,48.8
2023-05-19T12:35:30.809Z,47.2
2023-05-19T12:41:23.469Z,46.1
2023-05-19T12:47:15.272Z,45.3
2023-05-19T12:53:10.314Z,44.6
2023-05-19T12:59:04.348Z,44.1
2023-05-19T13:05:13.602Z,43.7
2023-05-19T13:11:06.431Z,43.4
2023-05-19T13:16:58.757Z,43.1
2023-05-19T13:23:04.681Z,42.9
2023-05-19T13:28:26.058Z,42.7
2023-05-19T13:34:03.453Z,41.9
2023-05-19T13:39:55.724Z,41.8
2023-05-19T13:45:47.466Z,37.1
2023-05-19T13:51:51.136Z,36.8
2023-05-19T13:57:44.076Z,35.8
2023-05-19T14:03:34.999Z,35.5
2023-05-19T14:09:12.544Z,35.1
2023-05-19T14:15:33.357Z,34.9
2023-05-19T14:21:27.717Z,35.1
2023-05-19T14:27:21.129Z,35.6
2023-05-19T14:33:01.596Z,36.1
2023-05-19T14:38:54.564Z,35.8
2023-05-19T14:44:31.818Z,35.3
2023-05-19T14:50:09.728Z,35.6
2023-05-19T14:55:48.423Z,35.4
2023-05-19T15:01:37.811Z,34.9
2023-05-19T15:07:20.800Z,34.6
2023-05-19T15:13:12.745Z,34.4
2023-05-19T15:19:23.978Z,34.6
2023-05-19T15:25:15.242Z,34.3
2023-05-19T15:30:51.244Z,33.5
2023-05-19T15:36:28.394Z,34
2023-05-19T15:42:19.383Z,34.2
2023-05-19T15:48:11.519Z,33.9
2023-05-19T15:54:03.724Z,34.5
2023-05-19T15:59:39.334Z,34.4
2023-05-19T16:05:18.387Z,34.9
2023-05-19T16:11:10.861Z,34.9
2023-05-19T16:17:02.463Z,34.5
2023-05-19T16:22:40.108Z,34.1
2023-05-19T16:28:16.500Z,33.9
2023-05-19T16:33:52.618Z,33.6
2023-05-19T16:39:29.560Z,33.3
2023-05-19T16:45:07.195Z,32.9
2023-05-19T16:50:44.781Z,32.7
2023-05-19T16:56:36.747Z,32.4
2023-05-19T17:02:14.286Z,32.1
2023-05-19T17:07:22.945Z,31.8
2023-05-19T17:13:00.110Z,31.6
2023-05-19T17:18:37.081Z,31.2
2023-05-19T17:24:13.365Z,30.7
2023-05-19T17:30:04.547Z,30.2
2023-05-19T17:35:44.674Z,30
2023-05-19T17:41:20.704Z,29.9
2023-05-19T17:47:11.526Z,29.8
2023-05-19T17:52:48.102Z,29.8
2023-05-19T18:03:14.248Z,29.7
2023-05-19T18:08:51.698Z,29.6
2023-05-19T18:14:30.876Z,29.6
2023-05-19T18:20:07.442Z,29.6
2023-05-19T18:25:43.820Z,29.6
2023-05-19T18:31:19.560Z,29.5
2023-05-19T18:36:40.334Z,29.5
2023-05-19T18:42:01.151Z,29.5
2023-05-19T18:47:06.484Z,29.5
2023-05-19T18:52:11.355Z,29.4
2023-05-19T18:57:33.497Z,29.3
2023-05-19T19:02:23.362Z,29.1
2023-05-19T19:07:28.064Z,28.9
2023-05-19T19:13:06.596Z,28.7
2023-05-19T19:18:42.881Z,28.6
2023-05-19T19:24:18.346Z,28.4
2023-05-19T19:29:55.254Z,28.4
2023-05-19T19:35:33.567Z,28.6
2023-05-19T19:41:09.536Z,29
2023-05-19T19:46:46.734Z,29.7
2023-05-19T19:52:38.148Z,30.6
2023-05-19T20:04:09.449Z,32.8
2023-05-19T20:09:45.363Z,34.1
2023-05-19T20:15:07.074Z,35.1
2023-05-19T20:20:45.986Z,35.7
2023-05-19T20:26:42.501Z,36
2023-05-19T20:32:20.724Z,36.3
2023-05-19T20:43:19.082Z,36.4
2023-05-19T20:48:55.514Z,36.4
2023-05-19T20:54:32.234Z,36.4
2023-05-19T21:00:07.652Z,36.4
2023-05-19T21:06:00.100Z,36.4
2023-05-19T21:11:36.762Z,36.4
2023-05-19T21:17:12.465Z,36.4
2023-05-19T21:28:40.819Z,36.4
2023-05-19T21:34:31.612Z,36.4
2023-05-19T21:40:18.625Z,36.4
2023-05-19T21:46:13.232Z,36.3
2023-05-19T21:51:49.420Z,36.4
2023-05-19T21:57:40.363Z,36.3
2023-05-19T22:03:33.126Z,36.3
2023-05-19T22:09:24.661Z,36.3
2023-05-19T22:15:14.998Z,36.3
2023-05-19T22:20:52.315Z,36.3
2023-05-19T22:26:56.167Z,36.3
2023-05-19T22:32:50.235Z,36.2
2023-05-19T22:38:43.656Z,36.2
2023-05-19T22:44:35.469Z,36.1
2023-05-19T22:50:29.899Z,36.1
2023-05-19T22:56:22.675Z,36.1
2023-05-19T23:02:13.615Z,36.1
2023-05-19T23:08:04.355Z,36.1
2023-05-19T23:13:56.562Z,36.1
2023-05-19T23:19:48.729Z,36
2023-05-19T23:25:40.881Z,36
2023-05-19T23:31:34.711Z,36
2023-05-19T23:37:26.123Z,35.9
2023-05-19T23:43:16.924Z,35.9
2023-05-19T23:49:09.121Z,35.9
2023-05-19T23:55:00.750Z,35.8
